createdAt,value
2022-11-19T00:00:07.801Z,0.60
2022-11-19T00:02:17.586Z,0.50
2022-11-19T00:04:26.053Z,0.60
2022-11-19T00:06:34.582Z,0.60
2022-11-19T00:08:43.519Z,0.50
2022-11-19T00:10:53.427Z,0.50
2022-11-19T00:13:00.875Z,0.40
2022-11-19T00:15:09.923Z,0.47
2022-11-19T00:17:18.358Z,0.40
2022-11-19T00:19:27.211Z,0.60
2022-11-19T00:21:35.650Z,0.50
2022-11-19T00:23:44.057Z,0.50
2022-11-19T00:25:54.229Z,0.67
2022-11-19T00:28:02.814Z,0.60
2022-11-19T00:30:32.666Z,0.50
2022-11-19T00:32:40.513Z,0.50
2022-11-19T00:34:49.034Z,0.50
2022-11-19T00:36:57.465Z,0.33
2022-11-19T00:39:05.940Z,0.40
2022-11-19T00:41:15.902Z,0.50
2022-11-19T00:43:41.860Z,0.40
2022-11-19T00:45:50.340Z,0.60
2022-11-19T00:47:58.804Z,0.67
2022-11-19T00:50:07.862Z,0.60
2022-11-19T00:52:16.561Z,0.80
2022-11-19T00:54:25.372Z,0.50
2022-11-19T00:56:35.157Z,0.60
2022-11-19T00:58:44.144Z,0.50
2022-11-19T01:00:52.862Z,0.70
2022-11-19T01:03:01.333Z,0.50
2022-11-19T01:05:10.366Z,0.40
2022-11-19T01:07:18.880Z,0.63
2022-11-19T01:09:29.466Z,0.60
2022-11-19T01:11:39.705Z,0.40
2022-11-19T01:13:50.813Z,0.70
2022-11-19T01:15:59.342Z,0.70
2022-11-19T01:18:07.966Z,0.43
2022-11-19T01:20:16.784Z,0.40
2022-11-19T01:22:25.263Z,0.73
2022-11-19T01:24:33.866Z,0.40
2022-11-19T01:26:46.046Z,0.60
2022-11-19T01:28:54.793Z,0.53
2022-11-19T01:31:07.824Z,0.60
2022-11-19T01:33:16.518Z,0.50
2022-11-19T01:35:25.569Z,0.60
2022-11-19T01:37:34.291Z,0.60
2022-11-19T01:39:42.932Z,0.67
2022-11-19T01:41:52.990Z,0.63
2022-11-19T01:44:02.582Z,0.60
2022-11-19T01:46:11.294Z,0.60
2022-11-19T01:48:20.890Z,0.43
2022-11-19T01:50:30.460Z,0.60
2022-11-19T01:52:40.012Z,0.57
2022-11-19T01:54:51.336Z,0.33
2022-11-19T01:57:04.643Z,0.40
2022-11-19T01:59:14.945Z,0.40
2022-11-19T02:01:24.066Z,0.50
2022-11-19T02:03:33.098Z,0.70
2022-11-19T02:05:42.420Z,0.40
2022-11-19T02:07:54.428Z,0.50
2022-11-19T02:10:04.570Z,0.60
2022-11-19T02:12:22.741Z,0.60
2022-11-19T02:14:55.076Z,0.50
2022-11-19T02:17:08.596Z,0.50
2022-11-19T02:19:25.173Z,0.60
2022-11-19T02:21:35.605Z,0.37
2022-11-19T02:23:52.258Z,0.60
2022-11-19T02:26:15.864Z,0.77
2022-11-19T02:28:36.880Z,0.50
2022-11-19T02:30:49.392Z,0.50
2022-11-19T02:33:03.464Z,0.50
2022-11-19T02:35:16.233Z,0.50
2022-11-19T02:37:27.225Z,0.60
2022-11-19T02:39:40.607Z,0.63
2022-11-19T02:41:51.222Z,0.70
2022-11-19T02:44:23.042Z,0.63
2022-11-19T02:46:31.840Z,0.43
2022-11-19T02:48:41.884Z,0.70
2022-11-19T02:50:51.469Z,0.40
2022-11-19T02:53:00.399Z,0.60
2022-11-19T02:55:09.394Z,0.30
2022-11-19T02:57:18.042Z,0.50
2022-11-19T02:59:46.752Z,0.33
2022-11-19T03:02:14.437Z,0.70
2022-11-19T03:04:32.917Z,0.63
2022-11-19T03:06:41.642Z,0.40
2022-11-19T03:08:50.149Z,0.60
2022-11-19T03:11:05.047Z,0.50
2022-11-19T03:13:40.298Z,0.50
2022-11-19T03:16:16.389Z,0.40
2022-11-19T03:18:31.930Z,0.50
2022-11-19T03:20:43.241Z,0.73
2022-11-19T03:22:53.521Z,0.57
2022-11-19T03:25:05.540Z,0.40
2022-11-19T03:27:17.105Z,0.60
2022-11-19T03:29:27.873Z,0.60
2022-11-19T03:31:36.717Z,0.50
2022-11-19T03:33:48.540Z,0.40
2022-11-19T03:36:00.901Z,0.47
2022-11-19T03:38:10.520Z,0.57
2022-11-19T03:40:19.875Z,0.50
2022-11-19T03:42:28.789Z,0.53
2022-11-19T03:44:39.598Z,0.70
2022-11-19T03:46:49.603Z,0.50
2022-11-19T03:49:02.272Z,0.70
2022-11-19T03:51:13.461Z,0.40
2022-11-19T03:53:22.747Z,0.50
2022-11-19T03:55:33.934Z,0.50
2022-11-19T03:57:42.601Z,0.53
2022-11-19T03:59:51.185Z,0.50
2022-11-19T04:02:00.955Z,0.50
2022-11-19T04:04:28.193Z,0.80
2022-11-19T04:06:36.854Z,0.63
2022-11-19T04:08:45.249Z,0.60
2022-11-19T04:10:53.674Z,0.70
2022-11-19T04:13:02.075Z,0.60
2022-11-19T04:15:11.993Z,0.70
2022-11-19T04:17:21.414Z,0.60
2022-11-19T04:19:31.598Z,0.60
2022-11-19T04:21:40.036Z,0.50
2022-11-19T04:23:48.460Z,0.50
2022-11-19T04:25:56.881Z,0.50
2022-11-19T04:28:05.537Z,0.60
2022-11-19T04:30:14.458Z,0.73
2022-11-19T04:32:22.868Z,0.60
2022-11-19T04:34:32.769Z,0.70
2022-11-19T04:36:42.302Z,0.80
2022-11-19T04:38:50.739Z,0.50
2022-11-19T04:40:59.638Z,0.53
2022-11-19T04:43:08.131Z,0.83
2022-11-19T04:45:18.290Z,0.70
2022-11-19T04:47:26.724Z,0.70
2022-11-19T04:49:38.266Z,0.73
2022-11-19T04:51:46.740Z,0.60
2022-11-19T04:53:56.653Z,0.60
2022-11-19T04:56:05.149Z,0.60
2022-11-19T04:58:13.762Z,0.50
2022-11-19T05:00:22.342Z,0.53
2022-11-19T05:02:30.913Z,0.60
2022-11-19T05:04:41.003Z,0.60
2022-11-19T05:06:49.632Z,0.40
2022-11-19T05:08:58.028Z,0.60
2022-11-19T05:11:06.674Z,0.50
2022-11-19T05:13:15.374Z,0.50
2022-11-19T05:15:24.498Z,0.60
2022-11-19T05:17:32.978Z,0.70
2022-11-19T05:19:42.850Z,0.50
2022-11-19T05:21:51.271Z,0.47
2022-11-19T05:23:59.747Z,0.80
2022-11-19T05:26:08.295Z,0.67
2022-11-19T05:28:16.754Z,0.70
2022-11-19T05:30:25.439Z,0.60
2022-11-19T05:32:34.083Z,0.70
2022-11-19T05:34:43.890Z,0.60
2022-11-19T05:36:52.426Z,0.50
2022-11-19T05:39:00.878Z,0.60
2022-11-19T05:41:09.328Z,0.47
2022-11-19T05:43:17.908Z,0.60
2022-11-19T05:45:26.324Z,0.80
2022-11-19T05:47:34.769Z,0.70
2022-11-19T05:49:44.623Z,0.90
2022-11-19T05:51:53.934Z,0.80
2022-11-19T05:54:02.417Z,0.57
2022-11-19T05:56:11.212Z,0.80
2022-11-19T05:58:19.835Z,1.37
2022-11-19T06:00:28.350Z,0.83
2022-11-19T06:02:36.831Z,0.63
2022-11-19T06:04:46.777Z,0.70
2022-11-19T06:06:55.237Z,0.70
2022-11-19T06:09:03.814Z,0.50
2022-11-19T06:11:33.316Z,2.20
2022-11-19T06:13:41.760Z,1.00
2022-11-19T06:15:50.246Z,0.60
2022-11-19T06:17:58.721Z,0.77
2022-11-19T06:20:11.049Z,0.73
2022-11-19T06:22:19.625Z,0.60
2022-11-19T06:24:28.349Z,0.93
2022-11-19T06:26:37.951Z,1.07
2022-11-19T06:28:46.374Z,1.03
2022-11-19T06:30:54.872Z,1.90
2022-11-19T06:33:03.412Z,1.00
2022-11-19T06:35:14.482Z,0.80
2022-11-19T06:37:23.468Z,0.60
2022-11-19T06:39:31.931Z,0.70
2022-11-19T06:41:40.567Z,0.70
2022-11-19T06:43:49.272Z,1.00
2022-11-19T06:45:57.778Z,0.70
2022-11-19T06:48:06.671Z,0.50
2022-11-19T06:50:16.705Z,0.80
2022-11-19T06:52:25.208Z,0.53
2022-11-19T06:54:34.516Z,0.80
2022-11-19T06:56:44.265Z,0.60
2022-11-19T06:58:52.720Z,0.80
2022-11-19T07:01:01.201Z,0.60
2022-11-19T07:03:09.632Z,0.67
2022-11-19T07:05:19.495Z,1.03
2022-11-19T07:07:27.970Z,0.70
2022-11-19T07:09:36.490Z,0.57
2022-11-19T07:11:44.975Z,0.80
2022-11-19T07:14:00.087Z,0.70
2022-11-19T07:16:09.729Z,0.77
2022-11-19T07:18:18.146Z,0.80
2022-11-19T07:20:28.222Z,0.70
2022-11-19T07:22:36.705Z,0.93
2022-11-19T07:24:45.231Z,0.93
2022-11-19T07:26:54.092Z,0.60
2022-11-19T07:29:04.897Z,0.70
2022-11-19T07:31:13.899Z,0.80
2022-11-19T07:33:22.411Z,0.90
2022-11-19T07:35:32.249Z,1.00
2022-11-19T07:37:41.427Z,0.90
2022-11-19T07:39:50.078Z,1.73
2022-11-19T07:42:16.321Z,0.63
2022-11-19T07:44:24.736Z,1.00
2022-11-19T07:46:33.124Z,0.80
2022-11-19T07:48:42.589Z,0.90
2022-11-19T07:50:56.651Z,0.70
2022-11-19T07:53:05.422Z,0.90
2022-11-19T07:55:13.853Z,0.57
2022-11-19T07:57:27.190Z,0.73
2022-11-19T07:59:38.565Z,0.57
2022-11-19T08:01:47.149Z,1.40
2022-11-19T08:03:56.931Z,0.70
2022-11-19T08:06:08.218Z,1.07
2022-11-19T08:08:16.698Z,0.97
2022-11-19T08:10:31.409Z,0.80
2022-11-19T08:12:40.434Z,1.00
2022-11-19T08:14:48.882Z,1.23
2022-11-19T08:17:15.283Z,1.23
2022-11-19T08:19:24.124Z,0.80
2022-11-19T08:21:33.960Z,0.80
2022-11-19T08:23:42.427Z,0.90
2022-11-19T08:25:51.039Z,1.10
2022-11-19T08:27:59.652Z,0.90
2022-11-19T08:30:08.657Z,0.93
2022-11-19T08:32:17.200Z,1.70
2022-11-19T08:34:25.653Z,2.40
2022-11-19T08:36:35.844Z,1.10
2022-11-19T08:38:44.282Z,0.73
2022-11-19T08:40:53.533Z,0.70
2022-11-19T08:43:00.987Z,1.37
2022-11-19T08:45:10.197Z,0.87
2022-11-19T08:47:18.613Z,1.00
2022-11-19T08:49:27.024Z,1.40
2022-11-19T08:51:37.359Z,1.20
2022-11-19T08:53:46.216Z,1.20
2022-11-19T08:55:55.003Z,0.90
2022-11-19T08:58:03.898Z,0.50
2022-11-19T09:00:12.986Z,1.13
2022-11-19T09:02:21.537Z,1.00
2022-11-19T09:04:30.551Z,1.07
2022-11-19T09:06:40.757Z,1.00
2022-11-19T09:08:49.495Z,0.70
2022-11-19T09:10:57.950Z,1.07
2022-11-19T09:13:06.441Z,1.00
2022-11-19T09:15:15.345Z,0.77
2022-11-19T09:17:23.778Z,0.80
2022-11-19T09:19:32.181Z,1.00
2022-11-19T09:21:42.040Z,0.90
2022-11-19T09:23:50.512Z,0.80
2022-11-19T09:25:59.544Z,0.80
2022-11-19T09:28:08.388Z,0.70
2022-11-19T09:30:17.203Z,0.90
2022-11-19T09:32:25.917Z,0.90
2022-11-19T09:34:35.248Z,0.90
2022-11-19T09:36:45.329Z,0.90
2022-11-19T09:38:57.984Z,1.13
2022-11-19T09:41:20.777Z,1.00
2022-11-19T09:43:34.989Z,0.77
2022-11-19T09:45:49.858Z,0.90
2022-11-19T09:48:07.137Z,1.30
2022-11-19T09:50:17.925Z,0.50
2022-11-19T09:52:30.566Z,1.00
2022-11-19T09:54:43.832Z,1.00
2022-11-19T09:56:53.962Z,0.80
2022-11-19T09:59:05.235Z,0.87
2022-11-19T10:01:15.377Z,1.07
2022-11-19T10:03:28.639Z,1.30
2022-11-19T10:05:44.668Z,1.13
2022-11-19T10:07:59.330Z,1.20
2022-11-19T10:10:15.637Z,1.17
2022-11-19T10:12:30.863Z,1.00
2022-11-19T10:14:46.927Z,1.10
2022-11-19T10:16:59.349Z,1.00
2022-11-19T10:19:12.880Z,1.03
2022-11-19T10:21:27.901Z,1.93
2022-11-19T10:23:46.432Z,0.83
2022-11-19T10:25:57.771Z,1.80
2022-11-19T10:28:10.422Z,0.90
2022-11-19T10:30:20.430Z,1.50
2022-11-19T10:32:31.718Z,1.80
2022-11-19T10:34:40.501Z,1.50
2022-11-19T10:36:50.077Z,1.40
2022-11-19T10:39:04.193Z,0.70
2022-11-19T10:41:17.559Z,1.00
2022-11-19T10:43:29.352Z,1.30
2022-11-19T10:45:37.870Z,0.90
2022-11-19T10:47:48.769Z,1.70
2022-11-19T10:49:57.745Z,1.37
2022-11-19T10:52:06.512Z,1.23
2022-11-19T10:54:23.287Z,1.27
2022-11-19T10:56:37.068Z,1.10
2022-11-19T10:58:48.023Z,1.13
2022-11-19T11:00:57.967Z,1.20
2022-11-19T11:03:08.230Z,1.00
2022-11-19T11:05:17.981Z,1.13
2022-11-19T11:07:50.135Z,1.50
2022-11-19T11:10:01.254Z,1.30
2022-11-19T11:12:30.821Z,1.10
2022-11-19T11:14:55.416Z,0.80
2022-11-19T11:17:04.910Z,0.80
2022-11-19T11:19:14.982Z,0.73
2022-11-19T11:21:29.120Z,0.90
2022-11-19T11:23:48.499Z,1.00
2022-11-19T11:26:02.380Z,1.70
2022-11-19T11:28:14.635Z,1.30
2022-11-19T11:30:23.085Z,0.80
2022-11-19T11:32:32.195Z,1.43
2022-11-19T11:34:44.250Z,2.00
2022-11-19T11:36:53.185Z,1.00
2022-11-19T11:39:02.959Z,1.20
2022-11-19T11:44:01.337Z,0.80
2022-11-19T11:46:12.821Z,1.70
2022-11-19T11:48:22.840Z,0.90
2022-11-19T11:50:31.767Z,1.00
2022-11-19T11:52:42.963Z,1.10
2022-11-19T11:54:58.959Z,1.20
2022-11-19T11:57:16.895Z,1.30
2022-11-19T11:59:26.798Z,1.30
2022-11-19T12:01:35.230Z,1.00
2022-11-19T12:03:55.302Z,1.40
2022-11-19T12:06:08.807Z,0.57
2022-11-19T12:08:26.526Z,1.50
2022-11-19T12:10:41.458Z,1.47
2022-11-19T12:12:55.570Z,1.00
2022-11-19T12:15:06.666Z,1.33
2022-11-19T12:17:29.955Z,1.20
2022-11-19T12:19:47.259Z,1.63
2022-11-19T12:22:02.089Z,0.93
2022-11-19T12:24:21.087Z,1.20
2022-11-19T12:26:33.784Z,1.17
2022-11-19T12:31:28.637Z,1.00
2022-11-19T12:33:49.633Z,1.27
2022-11-19T12:36:07.709Z,1.17
2022-11-19T12:38:32.164Z,1.10
2022-11-19T12:40:46.797Z,0.97
2022-11-19T12:43:02.429Z,1.20
2022-11-19T12:45:16.656Z,1.33
2022-11-19T12:47:34.661Z,1.17
2022-11-19T12:49:50.396Z,1.37
2022-11-19T12:52:05.580Z,1.27
2022-11-19T12:54:39.478Z,1.10
2022-11-19T12:56:52.816Z,1.00
2022-11-19T12:59:06.744Z,1.03
2022-11-19T13:01:18.003Z,1.00
2022-11-19T13:03:38.148Z,1.23
2022-11-19T13:05:50.234Z,1.30
2022-11-19T13:08:01.715Z,1.23
2022-11-19T13:10:15.909Z,1.53
2022-11-19T13:12:27.387Z,2.20
2022-11-19T13:14:40.890Z,1.83
2022-11-19T13:16:49.949Z,1.90
2022-11-19T13:19:14.831Z,1.50
2022-11-19T13:21:29.020Z,2.13
2022-11-19T13:23:40.787Z,2.07
2022-11-19T13:25:56.083Z,1.90
2022-11-19T13:28:06.587Z,1.73
2022-11-19T13:30:21.559Z,1.60
2022-11-19T13:32:33.576Z,1.00
2022-11-19T13:34:47.706Z,1.30
2022-11-19T13:37:01.099Z,1.30
2022-11-19T13:39:13.349Z,1.70
2022-11-19T13:41:24.920Z,1.00
2022-11-19T13:43:51.550Z,1.40
2022-11-19T13:46:05.824Z,0.90
2022-11-19T13:48:22.190Z,0.90
2022-11-19T13:50:34.420Z,1.10
2022-11-19T13:52:46.218Z,0.53
2022-11-19T13:54:56.929Z,0.70
2022-11-19T13:57:07.082Z,0.70
2022-11-19T13:59:40.389Z,0.80
2022-11-19T14:01:56.149Z,0.70
2022-11-19T14:04:15.105Z,1.00
2022-11-19T14:06:32.422Z,1.10
2022-11-19T14:08:48.266Z,1.10
2022-11-19T14:11:03.418Z,1.07
2022-11-19T14:13:28.409Z,1.50
2022-11-19T14:16:18.791Z,0.80
2022-11-19T14:18:51.561Z,0.33
2022-11-19T14:21:35.756Z,0.77
2022-11-19T14:24:05.751Z,0.80
2022-11-19T14:26:35.003Z,1.30
2022-11-19T14:28:45.061Z,1.90
2022-11-19T14:31:03.767Z,1.90
2022-11-19T14:33:27.400Z,1.33
2022-11-19T14:35:41.386Z,2.40
2022-11-19T14:37:51.466Z,1.90
2022-11-19T14:40:03.800Z,2.43
2022-11-19T14:42:17.195Z,1.67
2022-11-19T14:44:44.871Z,1.80
2022-11-19T14:46:53.946Z,5.27
2022-11-19T14:49:05.163Z,2.33
2022-11-19T14:51:15.188Z,2.10
2022-11-19T14:53:23.931Z,1.50
2022-11-19T14:55:36.260Z,2.20
2022-11-19T14:57:46.722Z,2.50
2022-11-19T14:59:58.493Z,2.60
2022-11-19T15:02:17.861Z,2.73
2022-11-19T15:04:28.796Z,2.60
2022-11-19T15:06:38.849Z,2.80
2022-11-19T15:08:52.677Z,2.57
2022-11-19T15:11:07.415Z,2.90
2022-11-19T15:13:20.475Z,2.53
2022-11-19T15:15:35.460Z,2.40
2022-11-19T15:17:44.347Z,3.10
2022-11-19T15:19:59.302Z,2.83
2022-11-19T15:22:24.984Z,5.20
2022-11-19T15:24:43.097Z,2.97
2022-11-19T15:26:59.298Z,3.17
2022-11-19T15:29:11.731Z,3.57
2022-11-19T15:31:28.440Z,3.50
2022-11-19T15:33:46.193Z,8.47
2022-11-19T15:36:10.437Z,3.17
2022-11-19T15:38:30.024Z,3.37
2022-11-19T15:40:39.304Z,3.07
2022-11-19T15:42:53.734Z,3.10
2022-11-19T15:45:04.325Z,3.03
2022-11-19T15:47:14.922Z,2.83
2022-11-19T15:49:26.126Z,3.13
2022-11-19T15:51:41.611Z,2.57
2022-11-19T15:53:59.934Z,2.67
2022-11-19T15:56:10.682Z,2.90
2022-11-19T15:58:23.002Z,3.97
2022-11-19T16:00:32.654Z,3.00
2022-11-19T16:02:43.822Z,2.80
2022-11-19T16:04:52.684Z,2.97
2022-11-19T16:07:01.495Z,3.17
2022-11-19T16:09:18.609Z,3.20
2022-11-19T16:11:45.776Z,2.40
2022-11-19T16:14:13.755Z,2.20
2022-11-19T16:16:42.474Z,2.67
2022-11-19T16:18:52.387Z,2.50
2022-11-19T16:21:01.927Z,2.93
2022-11-19T16:23:11.444Z,4.03
2022-11-19T16:25:23.042Z,3.40
2022-11-19T16:27:32.747Z,4.30
2022-11-19T16:29:44.586Z,2.60
2022-11-19T16:31:54.321Z,3.27
2022-11-19T16:34:03.735Z,3.67
2022-11-19T16:36:13.345Z,3.10
2022-11-19T16:38:25.591Z,3.47
2022-11-19T16:40:54.753Z,2.97
2022-11-19T16:43:03.571Z,3.17
2022-11-19T16:45:19.722Z,2.27
2022-11-19T16:47:31.246Z,2.90
2022-11-19T16:49:43.112Z,1.97
2022-11-19T16:51:55.801Z,2.80
2022-11-19T16:54:05.700Z,2.63
2022-11-19T16:56:16.995Z,2.43
2022-11-19T16:58:29.924Z,2.60
2022-11-19T17:00:41.441Z,2.37
2022-11-19T17:02:51.307Z,2.53
2022-11-19T17:05:07.126Z,2.20
2022-11-19T17:07:16.340Z,2.50
2022-11-19T17:09:32.744Z,2.73
2022-11-19T17:12:00.854Z,2.37
2022-11-19T17:14:21.230Z,2.33
2022-11-19T17:16:31.972Z,2.67
2022-11-19T17:18:44.192Z,2.20
2022-11-19T17:20:54.324Z,2.60
2022-11-19T17:23:05.273Z,2.70
2022-11-19T17:25:15.995Z,2.47
2022-11-19T17:27:28.908Z,3.13
2022-11-19T17:29:38.018Z,2.80
2022-11-19T17:31:50.204Z,2.60
2022-11-19T17:34:00.073Z,2.60
2022-11-19T17:36:15.062Z,2.77
2022-11-19T17:38:27.756Z,2.50
2022-11-19T17:40:36.804Z,2.60
2022-11-19T17:43:02.947Z,1.97
2022-11-19T17:45:12.477Z,2.37
2022-11-19T17:47:24.343Z,2.43
2022-11-19T17:49:33.501Z,2.60
2022-11-19T17:51:43.266Z,2.70
2022-11-19T17:53:52.353Z,2.57
2022-11-19T17:56:03.302Z,3.67
2022-11-19T17:58:12.917Z,2.50
2022-11-19T18:00:21.556Z,3.30
2022-11-19T18:02:32.402Z,5.43
2022-11-19T18:04:41.505Z,3.67
2022-11-19T18:06:50.988Z,4.67
2022-11-19T18:09:00.201Z,4.03
2022-11-19T18:11:11.332Z,4.07
2022-11-19T18:13:21.853Z,8.40
2022-11-19T18:15:31.225Z,11.90
2022-11-19T18:17:41.707Z,7.57
2022-11-19T18:19:50.630Z,12.77
2022-11-19T18:22:00.657Z,6.17
2022-11-19T18:24:12.985Z,5.43
2022-11-19T18:26:22.917Z,8.13
2022-11-19T18:28:31.736Z,4.80
2022-11-19T18:30:40.459Z,6.20
2022-11-19T18:32:50.887Z,5.50
2022-11-19T18:35:01.904Z,8.27
2022-11-19T18:37:11.481Z,12.13
2022-11-19T18:39:20.481Z,7.80
2022-11-19T18:41:29.654Z,4.63
2022-11-19T18:43:56.078Z,5.50
2022-11-19T18:46:05.071Z,9.87
2022-11-19T18:48:15.849Z,10.53
2022-11-19T18:50:29.547Z,7.57
2022-11-19T18:52:39.622Z,4.60
2022-11-19T18:54:48.583Z,8.20
2022-11-19T18:56:57.526Z,7.10
2022-11-19T18:59:06.306Z,6.53
2022-11-19T19:01:16.889Z,4.63
2022-11-19T19:03:27.453Z,5.40
2022-11-19T19:05:37.061Z,3.70
2022-11-19T19:07:45.739Z,6.57
2022-11-19T19:09:54.948Z,7.67
2022-11-19T19:12:18.270Z,7.63
2022-11-19T19:14:27.065Z,7.40
2022-11-19T19:16:36.043Z,4.83
2022-11-19T19:18:46.584Z,4.87
2022-11-19T19:20:57.359Z,4.10
2022-11-19T19:23:06.523Z,5.23
2022-11-19T19:25:16.446Z,6.23
2022-11-19T19:27:26.231Z,5.90
2022-11-19T19:29:35.614Z,5.97
2022-11-19T19:31:44.746Z,5.03
2022-11-19T19:33:55.509Z,4.30
2022-11-19T19:36:04.879Z,4.60
2022-11-19T19:38:13.575Z,4.00
2022-11-19T19:40:22.729Z,3.80
2022-11-19T19:42:31.526Z,4.00
2022-11-19T19:44:40.700Z,6.50
2022-11-19T19:46:50.153Z,7.33
2022-11-19T19:49:01.234Z,7.37
2022-11-19T19:51:10.224Z,20.40
2022-11-19T19:53:18.940Z,17.70
2022-11-19T19:55:28.433Z,7.00
2022-11-19T19:57:37.467Z,4.70
2022-11-19T19:59:46.623Z,6.67
2022-11-19T20:01:55.761Z,4.87
2022-11-19T20:04:07.166Z,5.57
2022-11-19T20:06:17.048Z,6.27
2022-11-19T20:08:26.042Z,5.40
2022-11-19T20:10:35.047Z,4.97
2022-11-19T20:13:09.398Z,10.20
2022-11-19T20:15:18.631Z,5.00
2022-11-19T20:17:27.704Z,4.77
2022-11-19T20:19:38.834Z,3.30
2022-11-19T20:21:47.840Z,3.30
2022-11-19T20:23:57.440Z,3.43
2022-11-19T20:26:07.812Z,3.90
2022-11-19T20:28:18.191Z,4.70
2022-11-19T20:30:27.379Z,3.50
2022-11-19T20:32:36.293Z,4.53
2022-11-19T20:34:46.800Z,4.30
2022-11-19T20:36:57.631Z,4.90
2022-11-19T20:39:06.950Z,3.93
2022-11-19T20:41:30.788Z,5.00
2022-11-19T20:43:57.384Z,4.80
2022-11-19T20:46:11.294Z,4.40
2022-11-19T20:48:20.591Z,3.07
2022-11-19T20:50:30.942Z,3.07
2022-11-19T20:52:40.355Z,2.60
2022-11-19T20:54:50.009Z,2.93
2022-11-19T20:56:59.638Z,2.90
2022-11-19T20:59:09.102Z,2.90
2022-11-19T21:01:18.487Z,2.80
2022-11-19T21:03:27.515Z,3.03
2022-11-19T21:05:38.156Z,3.20
2022-11-19T21:07:47.808Z,2.90
2022-11-19T21:09:56.844Z,2.97
2022-11-19T21:12:05.817Z,3.13
2022-11-19T21:14:14.961Z,3.07
2022-11-19T21:16:24.978Z,3.27
2022-11-19T21:18:36.737Z,2.87
2022-11-19T21:20:47.310Z,2.67
2022-11-19T21:22:56.003Z,2.77
2022-11-19T21:25:09.663Z,2.23
2022-11-19T21:27:21.736Z,2.40
2022-11-19T21:29:31.849Z,2.40
2022-11-19T21:31:42.660Z,2.37
2022-11-19T21:33:51.585Z,2.47
2022-11-19T21:36:02.261Z,2.70
2022-11-19T21:38:12.484Z,2.60
2022-11-19T21:40:21.255Z,3.00
2022-11-19T21:42:30.042Z,2.70
2022-11-19T21:44:38.973Z,3.00
2022-11-19T21:46:47.657Z,2.97
2022-11-19T21:48:56.668Z,2.73
2022-11-19T21:51:09.307Z,2.97
2022-11-19T21:53:18.841Z,2.90
2022-11-19T21:55:28.644Z,3.03
2022-11-19T21:57:37.405Z,3.03
2022-11-19T21:59:46.269Z,2.73
2022-11-19T22:01:55.126Z,2.77
2022-11-19T22:04:03.881Z,2.90
2022-11-19T22:06:14.434Z,2.60
2022-11-19T22:08:23.535Z,3.23
2022-11-19T22:10:32.750Z,2.83
2022-11-19T22:12:41.741Z,3.30
2022-11-19T22:14:50.645Z,3.37
2022-11-19T22:16:59.339Z,3.27
2022-11-19T22:19:08.580Z,3.30
2022-11-19T22:21:19.039Z,3.67
2022-11-19T22:23:27.960Z,3.13
2022-11-19T22:25:37.035Z,2.40
2022-11-19T22:27:46.198Z,2.60
2022-11-19T22:29:56.736Z,2.53
2022-11-19T22:32:05.931Z,2.50
2022-11-19T22:34:14.806Z,3.43
2022-11-19T22:36:25.618Z,3.10
2022-11-19T22:38:36.212Z,2.87
2022-11-19T22:40:45.205Z,3.07
2022-11-19T22:42:54.266Z,2.03
2022-11-19T22:45:03.296Z,2.30
2022-11-19T22:47:12.371Z,2.60
2022-11-19T22:49:21.497Z,2.90
2022-11-19T22:51:31.892Z,2.30
2022-11-19T22:53:40.553Z,2.20
2022-11-19T22:55:49.622Z,2.40
2022-11-19T22:57:58.634Z,2.43
2022-11-19T23:00:09.492Z,2.50
2022-11-19T23:02:18.722Z,2.20
2022-11-19T23:04:29.066Z,1.93
2022-11-19T23:06:40.000Z,1.90
2022-11-19T23:08:48.652Z,1.77
2022-11-19T23:11:00.651Z,2.27
2022-11-19T23:13:26.716Z,2.00
2022-11-19T23:15:35.468Z,1.90
2022-11-19T23:17:44.958Z,1.97
2022-11-19T23:19:54.024Z,1.67
2022-11-19T23:22:05.006Z,1.63
2022-11-19T23:24:13.739Z,1.80
2022-11-19T23:26:23.509Z,1.73
2022-11-19T23:28:33.286Z,1.67
2022-11-19T23:30:42.353Z,1.90
2022-11-19T23:32:51.199Z,1.60
2022-11-19T23:35:00.127Z,1.97
2022-11-19T23:37:10.814Z,1.87
2022-11-19T23:39:20.363Z,2.13
2022-11-19T23:41:29.996Z,2.10
2022-11-19T23:43:38.625Z,2.00
2022-11-19T23:45:48.153Z,2.30
2022-11-19T23:47:57.158Z,2.10
2022-11-19T23:50:05.933Z,1.90
2022-11-19T23:52:16.453Z,1.90
2022-11-19T23:54:26.158Z,2.07
2022-11-19T23:56:36.498Z,2.07
2022-11-19T23:58:45.434Z,2.20
